createdAt,value
2019-02-03T00:00:27.703Z,100789.37
2019-02-03T00:02:56.111Z,100788.80
2019-02-03T00:05:24.498Z,100802.12
2019-02-03T00:07:53.010Z,100807.70
2019-02-03T00:10:21.546Z,100813.01
2019-02-03T00:12:50.118Z,100812.47
2019-02-03T00:15:18.514Z,100819.39
2019-02-03T00:17:46.965Z,100826.90
2019-02-03T00:20:15.403Z,100834.62
2019-02-03T00:22:44.111Z,100834.58
2019-02-03T00:25:12.620Z,100841.50
2019-02-03T00:27:40.967Z,100844.42
2019-02-03T00:30:14.810Z,100841.17
2019-02-03T00:32:43.103Z,100842.77
2019-02-03T00:35:12.143Z,100848.06
2019-02-03T00:37:40.559Z,100852.31
2019-02-03T00:40:13.791Z,100859.23
2019-02-03T00:42:42.230Z,100863.73
2019-02-03T00:45:12.781Z,100860.78
2019-02-03T00:47:41.471Z,100867.95
2019-02-03T00:50:14.742Z,100872.45
2019-02-03T00:52:43.132Z,100869.50
2019-02-03T00:55:15.820Z,100869.99
2019-02-03T00:57:44.192Z,100874.49
2019-02-03T01:00:15.587Z,100876.08
2019-02-03T01:02:43.949Z,100880.25
2019-02-03T01:05:17.620Z,100885.04
2019-02-03T01:07:46.268Z,100889.24
2019-02-03T01:10:20.780Z,100895.04
2019-02-03T01:12:49.338Z,100898.49
2019-02-03T01:15:17.656Z,100897.69
2019-02-03T01:17:46.182Z,100896.07
2019-02-03T01:20:22.967Z,100890.98
2019-02-03T01:22:51.249Z,100890.69
2019-02-03T01:25:19.937Z,100890.40
2019-02-03T01:27:48.423Z,100891.44
2019-02-03T01:30:23.598Z,100893.82
2019-02-03T01:32:51.890Z,100903.69
2019-02-03T01:35:20.199Z,100898.31
2019-02-03T01:37:48.525Z,100906.31
2019-02-03T01:40:20.510Z,100906.60
2019-02-03T01:42:48.826Z,100915.14
2019-02-03T01:45:21.098Z,100907.14
2019-02-03T01:47:49.520Z,100908.98
2019-02-03T01:50:17.793Z,100909.27
2019-02-03T01:52:48.278Z,100914.07
2019-02-03T01:55:25.428Z,100914.41
2019-02-03T01:57:53.698Z,100920.28
2019-02-03T02:00:27.734Z,100927.50
2019-02-03T02:02:56.654Z,100918.16
2019-02-03T02:05:24.984Z,100926.45
2019-02-03T02:07:53.850Z,100923.30
2019-02-03T02:10:24.828Z,100927.05
2019-02-03T02:12:53.121Z,100928.08
2019-02-03T02:15:21.807Z,100929.46
2019-02-03T02:17:51.193Z,100930.50
2019-02-03T02:20:24.083Z,100938.75
2019-02-03T02:22:52.368Z,100937.92
2019-02-03T02:25:20.721Z,100938.55
2019-02-03T02:27:49.548Z,100949.77
2019-02-03T02:30:25.343Z,100956.73
2019-02-03T02:32:53.729Z,100958.41
2019-02-03T02:35:22.006Z,100953.36
2019-02-03T02:37:50.673Z,100967.30
2019-02-03T02:40:23.226Z,100958.25
2019-02-03T02:42:51.562Z,100959.09
2019-02-03T02:45:19.828Z,100959.39
2019-02-03T02:47:48.161Z,100971.94
2019-02-03T02:50:19.398Z,100978.41
2019-02-03T02:52:47.691Z,100992.55
2019-02-03T02:55:16.043Z,100988.88
2019-02-03T02:57:44.343Z,100993.22
2019-02-03T03:00:21.557Z,101003.91
2019-02-03T03:02:49.941Z,101007.45
2019-02-03T03:05:18.234Z,101002.95
2019-02-03T03:07:48.744Z,101004.34
2019-02-03T03:10:18.616Z,101007.05
2019-02-03T03:12:47.435Z,101011.34
2019-02-03T03:15:17.686Z,101016.19
2019-02-03T03:17:45.945Z,101023.91
2019-02-03T03:20:16.906Z,101027.63
2019-02-03T03:22:45.309Z,101035.47
2019-02-03T03:25:18.541Z,101036.31
2019-02-03T03:27:46.904Z,101035.97
2019-02-03T03:30:25.885Z,101033.34
2019-02-03T03:32:54.339Z,101032.30
2019-02-03T03:35:22.800Z,101037.11
2019-02-03T03:37:51.768Z,101051.84
2019-02-03T03:40:22.161Z,101045.70
2019-02-03T03:42:50.467Z,101049.70
2019-02-03T03:45:18.780Z,101051.73
2019-02-03T03:47:47.126Z,101055.23
2019-02-03T03:50:16.132Z,101057.36
2019-02-03T03:52:44.562Z,101059.73
2019-02-03T03:55:12.908Z,101064.88
2019-02-03T03:57:41.234Z,101066.75
2019-02-03T04:00:18.713Z,101075.05
2019-02-03T04:02:47.662Z,101078.52
2019-02-03T04:05:16.034Z,101078.23
2019-02-03T04:07:44.347Z,101078.61
2019-02-03T04:10:18.264Z,101077.72
2019-02-03T04:12:46.783Z,101080.34
2019-02-03T04:15:16.991Z,101084.36
2019-02-03T04:17:45.267Z,101075.80
2019-02-03T04:20:16.428Z,101074.17
2019-02-03T04:22:44.808Z,101077.14
2019-02-03T04:25:13.050Z,101081.93
2019-02-03T04:27:41.325Z,101081.59
2019-02-03T04:30:15.174Z,101086.39
2019-02-03T04:32:43.550Z,101086.11
2019-02-03T04:35:11.844Z,101087.42
2019-02-03T04:37:40.136Z,101086.50
2019-02-03T04:40:11.620Z,101091.24
2019-02-03T04:42:40.189Z,101098.06
2019-02-03T04:45:10.970Z,101106.51
2019-02-03T04:47:39.416Z,101099.64
2019-02-03T04:50:10.207Z,101109.17
2019-02-03T04:52:38.896Z,101114.73
2019-02-03T04:55:13.256Z,101122.73
2019-02-03T04:57:41.581Z,101118.18
2019-02-03T05:00:18.946Z,101122.19
2019-02-03T05:02:47.379Z,101122.33
2019-02-03T05:05:17.320Z,101126.78
2019-02-03T05:07:45.652Z,101122.70
2019-02-03T05:10:14.853Z,101122.12
2019-02-03T05:12:43.215Z,101120.48
2019-02-03T05:15:19.183Z,101122.84
2019-02-03T05:17:47.510Z,101125.41
2019-02-03T05:20:18.364Z,101125.64
2019-02-03T05:22:47.277Z,101137.06
2019-02-03T05:25:15.535Z,101150.94
2019-02-03T05:27:43.867Z,101154.89
2019-02-03T05:30:17.819Z,101169.27
2019-02-03T05:32:46.138Z,101185.51
2019-02-03T05:35:14.630Z,101192.17
2019-02-03T05:37:43.024Z,101201.22
2019-02-03T05:40:14.158Z,101221.47
2019-02-03T05:42:42.498Z,101227.36
2019-02-03T05:45:13.675Z,101234.74
2019-02-03T05:47:42.001Z,101227.72
2019-02-03T05:50:12.963Z,101238.21
2019-02-03T05:52:41.487Z,101244.55
2019-02-03T05:55:09.979Z,101254.33
2019-02-03T05:57:38.243Z,101278.64
2019-02-03T06:00:10.004Z,101281.54
2019-02-03T06:02:38.298Z,101287.91
2019-02-03T06:05:07.609Z,101279.97
2019-02-03T06:07:35.872Z,101289.07
2019-02-03T06:10:09.977Z,101289.37
2019-02-03T06:12:38.243Z,101293.99
2019-02-03T06:15:07.599Z,101302.30
2019-02-03T06:17:36.974Z,101306.06
2019-02-03T06:20:11.095Z,101304.23
2019-02-03T06:22:39.399Z,101312.53
2019-02-03T06:25:09.519Z,101322.37
2019-02-03T06:27:37.872Z,101330.60
2019-02-03T06:30:24.750Z,101339.28
2019-02-03T06:32:53.080Z,101340.05
2019-02-03T06:35:21.331Z,101339.75
2019-02-03T06:37:50.412Z,101342.36
2019-02-03T06:40:18.663Z,101353.26
2019-02-03T06:42:47.022Z,101351.80
2019-02-03T06:45:19.401Z,101353.89
2019-02-03T06:47:47.753Z,101362.63
2019-02-03T06:50:16.060Z,101360.20
2019-02-03T06:52:44.313Z,101364.13
2019-02-03T06:55:12.772Z,101377.40
2019-02-03T06:57:41.079Z,101378.73
2019-02-03T07:00:12.030Z,101383.20
2019-02-03T07:02:40.332Z,101384.23
2019-02-03T07:05:08.970Z,101383.63
2019-02-03T07:07:37.253Z,101376.86
2019-02-03T07:10:08.872Z,101383.95
2019-02-03T07:12:37.121Z,101385.22
2019-02-03T07:15:08.072Z,101394.72
2019-02-03T07:17:36.300Z,101399.98
2019-02-03T07:20:07.821Z,101406.37
2019-02-03T07:22:36.506Z,101407.10
2019-02-03T07:25:05.633Z,101409.16
2019-02-03T07:27:33.889Z,101406.95
2019-02-03T07:30:02.563Z,101412.22
2019-02-03T07:32:30.824Z,101426.00
2019-02-03T07:34:59.422Z,101425.40
2019-02-03T07:37:28.059Z,101426.46
2019-02-03T07:39:56.304Z,101438.38
2019-02-03T07:42:24.630Z,101438.66
2019-02-03T07:44:52.893Z,101436.06
2019-02-03T07:47:21.146Z,101426.31
2019-02-03T07:49:49.455Z,101432.67
2019-02-03T07:52:17.994Z,101433.33
2019-02-03T07:54:46.265Z,101435.64
2019-02-03T07:57:14.582Z,101433.94
2019-02-03T07:59:43.040Z,101428.84
2019-02-03T08:02:11.270Z,101427.81
2019-02-03T08:04:39.531Z,101425.87
2019-02-03T08:07:08.356Z,101426.75
2019-02-03T08:09:36.625Z,101423.92
2019-02-03T08:12:04.958Z,101426.59
2019-02-03T08:14:33.816Z,101427.50
2019-02-03T08:17:02.102Z,101433.13
2019-02-03T08:19:30.510Z,101430.08
2019-02-03T08:21:58.872Z,101446.64
2019-02-03T08:24:27.148Z,101457.98
2019-02-03T08:26:55.512Z,101452.12
2019-02-03T08:29:23.756Z,101459.16
2019-02-03T08:31:52.005Z,101465.90
2019-02-03T08:34:20.303Z,101462.55
2019-02-03T08:36:48.543Z,101464.56
2019-02-03T08:39:16.853Z,101466.99
2019-02-03T08:41:45.123Z,101472.17
2019-02-03T08:44:13.438Z,101484.84
2019-02-03T08:46:41.680Z,101472.45
2019-02-03T08:49:10.044Z,101489.17
2019-02-03T08:51:38.359Z,101478.72
2019-02-03T08:54:06.912Z,101485.06
2019-02-03T08:56:35.149Z,101489.27
2019-02-03T08:59:03.419Z,101493.41
2019-02-03T09:01:31.680Z,101489.02
2019-02-03T09:04:00.078Z,101493.75
2019-02-03T09:06:28.389Z,101498.46
2019-02-03T09:08:56.858Z,101501.33
2019-02-03T09:11:25.127Z,101503.59
2019-02-03T09:13:55.634Z,101510.17
2019-02-03T09:16:23.405Z,101513.04
2019-02-03T09:18:51.670Z,101513.41
2019-02-03T09:21:34.069Z,101508.46
2019-02-03T09:23:49.945Z,101502.71
2019-02-03T09:26:18.191Z,101496.22
2019-02-03T09:28:46.477Z,101506.23
2019-02-03T09:31:14.733Z,101508.73
2019-02-03T09:33:43.111Z,101515.30
2019-02-03T09:36:11.375Z,101530.11
2019-02-03T09:38:39.932Z,101527.33
2019-02-03T09:41:08.219Z,101527.39
2019-02-03T09:43:36.484Z,101524.06
2019-02-03T09:46:04.814Z,101530.50
2019-02-03T09:48:33.083Z,101538.70
2019-02-03T09:51:01.355Z,101547.88
2019-02-03T09:53:30.057Z,101553.41
2019-02-03T09:55:58.360Z,101553.28
2019-02-03T09:58:26.668Z,101554.20
2019-02-03T10:00:55.161Z,101555.23
2019-02-03T10:03:23.619Z,101567.84
2019-02-03T10:05:51.984Z,101567.37
2019-02-03T10:08:20.650Z,101566.86
2019-02-03T10:10:48.986Z,101567.61
2019-02-03T10:13:17.397Z,101572.77
2019-02-03T10:15:45.742Z,101565.39
2019-02-03T10:18:14.052Z,101568.39
2019-02-03T10:20:42.337Z,101567.75
2019-02-03T10:23:11.037Z,101566.52
2019-02-03T10:25:39.474Z,101570.84
2019-02-03T10:28:07.795Z,101576.95
2019-02-03T10:30:36.131Z,101576.89
2019-02-03T10:33:04.527Z,101578.67
2019-02-03T10:35:34.056Z,101571.84
2019-02-03T10:38:02.736Z,101578.63
2019-02-03T10:40:34.123Z,101583.04
2019-02-03T10:43:02.538Z,101584.28
2019-02-03T10:45:30.958Z,101590.29
2019-02-03T10:47:59.331Z,101583.53
2019-02-03T10:50:38.706Z,101587.36
2019-02-03T10:53:09.011Z,101596.29
2019-02-03T10:55:37.286Z,101593.74
2019-02-03T10:58:05.781Z,101602.47
2019-02-03T11:00:36.509Z,101607.13
2019-02-03T11:03:05.177Z,101603.95
2019-02-03T11:05:39.316Z,101605.38
2019-02-03T11:08:09.385Z,101607.09
2019-02-03T11:10:37.677Z,101609.19
2019-02-03T11:13:06.009Z,101615.39
2019-02-03T11:15:34.282Z,101610.23
2019-02-03T11:18:02.556Z,101623.43
2019-02-03T11:20:32.401Z,101612.45
2019-02-03T11:23:00.658Z,101621.92
2019-02-03T11:25:31.109Z,101622.27
2019-02-03T11:27:59.344Z,101626.38
2019-02-03T11:30:29.391Z,101624.03
2019-02-03T11:33:04.680Z,101627.84
2019-02-03T11:35:30.412Z,101635.11
2019-02-03T11:37:58.802Z,101642.11
2019-02-03T11:40:32.265Z,101644.91
2019-02-03T11:43:00.594Z,101644.91
2019-02-03T11:45:36.634Z,101641.73
2019-02-03T11:48:08.227Z,101645.50
2019-02-03T11:50:41.507Z,101653.67
2019-02-03T11:53:11.909Z,101653.75
2019-02-03T11:55:40.223Z,101659.20
2019-02-03T11:58:08.952Z,101661.67
2019-02-03T12:00:37.294Z,101669.80
2019-02-03T12:03:05.892Z,101671.48
2019-02-03T12:05:34.194Z,101670.22
2019-02-03T12:08:03.750Z,101670.22
2019-02-03T12:10:32.189Z,101676.57
2019-02-03T12:13:00.741Z,101667.58
2019-02-03T12:15:30.375Z,101667.58
2019-02-03T12:17:58.732Z,101670.66
2019-02-03T12:20:27.114Z,101675.44
2019-02-03T12:22:55.574Z,101675.44
2019-02-03T12:25:27.305Z,101673.87
2019-02-03T12:27:55.884Z,101672.27
2019-02-03T12:30:26.911Z,101683.63
2019-02-03T12:32:55.307Z,101671.28
2019-02-03T12:35:23.697Z,101672.95
2019-02-03T12:37:56.701Z,101687.85
2019-02-03T12:40:27.787Z,101687.85
2019-02-03T12:42:56.396Z,101695.98
2019-02-03T12:45:27.843Z,101703.50
2019-02-03T12:47:57.956Z,101703.50
2019-02-03T12:50:35.918Z,101688.75
2019-02-03T12:53:06.692Z,101702.25
2019-02-03T12:55:40.109Z,101696.36
2019-02-03T12:58:15.491Z,101696.36
2019-02-03T13:00:49.447Z,101707.69
2019-02-03T13:03:19.104Z,101711.70
2019-02-03T13:05:47.911Z,101711.70
2019-02-03T13:08:16.216Z,101722.57
2019-02-03T13:10:51.392Z,101716.97
2019-02-03T13:13:19.678Z,101719.72
2019-02-03T13:15:51.981Z,101723.86
2019-02-03T13:18:31.250Z,101723.86
2019-02-03T13:21:02.179Z,101733.11
2019-02-03T13:23:30.770Z,101735.59
2019-02-03T13:25:59.061Z,101737.20
2019-02-03T13:31:25.444Z,101752.05
2019-02-03T13:33:59.115Z,101757.34
2019-02-03T13:36:32.692Z,101757.34
2019-02-03T13:39:01.066Z,101762.75
2019-02-03T13:41:29.300Z,101760.75
2019-02-03T13:44:04.739Z,101770.97
2019-02-03T13:46:33.012Z,101773.12
2019-02-03T13:49:01.711Z,101772.00
2019-02-03T13:51:30.026Z,101773.87
2019-02-03T13:54:00.071Z,101778.13
2019-02-03T13:56:32.304Z,101780.39
2019-02-03T13:59:03.465Z,101780.39
2019-02-03T14:01:32.494Z,101790.73
2019-02-03T14:04:05.109Z,101792.81
2019-02-03T14:06:32.708Z,101797.68
2019-02-03T14:09:04.403Z,101798.48
2019-02-03T14:11:32.816Z,101797.65
2019-02-03T14:14:01.027Z,101805.27
2019-02-03T14:16:29.649Z,101806.48
2019-02-03T14:19:00.925Z,101816.18
2019-02-03T14:21:29.159Z,101813.23
2019-02-03T14:23:57.414Z,101818.16
2019-02-03T14:26:25.905Z,101824.08
2019-02-03T14:28:54.674Z,101829.47
2019-02-03T14:31:22.929Z,101831.91
2019-02-03T14:33:51.185Z,101825.98
2019-02-03T14:36:19.560Z,101833.65
2019-02-03T14:38:50.173Z,101836.11
2019-02-03T14:41:18.563Z,101835.59
2019-02-03T14:43:47.057Z,101839.66
2019-02-03T14:46:20.677Z,101842.63
2019-02-03T14:48:48.653Z,101845.36
2019-02-03T14:51:17.090Z,101845.44
2019-02-03T14:53:45.333Z,101853.59
2019-02-03T14:56:13.581Z,101855.77
2019-02-03T14:58:41.852Z,101867.63
2019-02-03T15:01:10.104Z,101863.05
2019-02-03T15:03:38.479Z,101865.69
2019-02-03T15:06:06.724Z,101867.75
2019-02-03T15:08:34.973Z,101877.70
2019-02-03T15:11:03.452Z,101883.31
2019-02-03T15:13:31.730Z,101882.20
2019-02-03T15:16:01.455Z,101883.72
2019-02-03T15:18:29.833Z,101887.37
2019-02-03T15:20:58.338Z,101887.02
2019-02-03T15:23:28.342Z,101888.02
2019-02-03T15:26:00.214Z,101888.97
2019-02-03T15:28:28.706Z,101895.13
2019-02-03T15:30:57.105Z,101895.23
2019-02-03T15:33:25.488Z,101890.33
2019-02-03T15:35:53.933Z,101890.15
2019-02-03T15:38:22.282Z,101894.58
2019-02-03T15:40:50.546Z,101891.78
2019-02-03T15:43:25.697Z,101891.78
2019-02-03T15:45:48.970Z,101900.02
2019-02-03T15:48:17.211Z,101911.78
2019-02-03T15:50:45.532Z,101897.92
2019-02-03T15:53:14.014Z,101905.36
2019-02-03T15:55:42.945Z,101911.48
2019-02-03T15:58:12.770Z,101908.03
2019-02-03T16:00:46.830Z,101912.06
2019-02-03T16:03:15.119Z,101905.55
2019-02-03T16:05:43.384Z,101908.35
2019-02-03T16:08:11.839Z,101908.35
2019-02-03T16:10:40.090Z,101910.50
2019-02-03T16:13:08.545Z,101920.91
2019-02-03T16:15:36.918Z,101912.73
2019-02-03T16:18:06.060Z,101924.98
2019-02-03T16:20:34.316Z,101928.91
2019-02-03T16:23:02.628Z,101936.03
2019-02-03T16:25:30.972Z,101937.72
2019-02-03T16:27:59.242Z,101937.72
2019-02-03T16:30:35.896Z,101946.31
2019-02-03T16:33:04.307Z,101949.53
2019-02-03T16:35:32.588Z,101949.38
2019-02-03T16:38:01.088Z,101950.61
2019-02-03T16:40:32.966Z,101950.61
2019-02-03T16:43:01.395Z,101943.98
2019-02-03T16:45:29.876Z,101955.81
2019-02-03T16:47:58.340Z,101956.73
2019-02-03T16:50:31.083Z,101959.60
2019-02-03T16:53:01.092Z,101958.14
2019-02-03T16:55:29.541Z,101958.91
2019-02-03T16:57:57.931Z,101958.91
2019-02-03T17:00:28.851Z,101973.66
2019-02-03T17:02:57.200Z,101962.94
2019-02-03T17:05:27.721Z,101962.94
2019-02-03T17:07:56.285Z,101966.88
2019-02-03T17:10:25.277Z,101972.63
2019-02-03T17:12:53.698Z,101961.72
2019-02-03T17:15:37.269Z,101967.80
2019-02-03T17:18:07.667Z,101972.73
2019-02-03T17:20:36.004Z,101977.40
2019-02-03T17:23:04.445Z,101982.06
2019-02-03T17:25:47.748Z,101978.13
2019-02-03T17:28:16.243Z,101979.13
2019-02-03T17:30:44.511Z,101979.17
2019-02-03T17:33:12.786Z,101979.27
2019-02-03T17:35:53.440Z,101981.82
2019-02-03T17:38:11.283Z,101992.40
2019-02-03T17:40:39.579Z,102001.64
2019-02-03T17:43:08.407Z,102002.27
2019-02-03T17:45:36.730Z,102006.14
2019-02-03T17:48:05.093Z,102001.98
2019-02-03T17:50:33.642Z,102007.97
2019-02-03T17:53:01.884Z,102009.59
2019-02-03T17:55:30.212Z,102015.87
2019-02-03T17:57:58.765Z,102017.05
2019-02-03T18:00:39.128Z,102024.70
2019-02-03T18:03:07.740Z,102029.41
2019-02-03T18:05:35.993Z,102027.39
2019-02-03T18:08:05.644Z,102036.41
2019-02-03T18:10:34.308Z,102034.38
2019-02-03T18:13:02.589Z,102036.59
2019-02-03T18:15:30.964Z,102040.27
2019-02-03T18:17:59.240Z,102039.08
2019-02-03T18:20:29.041Z,102046.19
2019-02-03T18:22:57.388Z,102040.26
2019-02-03T18:25:26.003Z,102045.30
2019-02-03T18:27:54.266Z,102040.48
2019-02-03T18:30:27.206Z,102047.09
2019-02-03T18:32:57.108Z,102048.66
2019-02-03T18:35:25.415Z,102042.09
2019-02-03T18:37:56.163Z,102050.78
2019-02-03T18:40:24.536Z,102057.92
2019-02-03T18:42:52.863Z,102054.05
2019-02-03T18:45:23.818Z,102059.82
2019-02-03T18:47:52.090Z,102062.41
2019-02-03T18:50:21.923Z,102069.85
2019-02-03T18:52:50.630Z,102066.26
2019-02-03T18:55:21.744Z,102070.49
2019-02-03T18:57:50.040Z,102070.94
2019-02-03T19:00:21.187Z,102070.47
2019-02-03T19:02:49.668Z,102070.30
2019-02-03T19:05:20.365Z,102075.28
2019-02-03T19:07:48.628Z,102080.84
2019-02-03T19:10:19.141Z,102080.95
2019-02-03T19:12:47.642Z,102081.93
2019-02-03T19:15:16.920Z,102087.10
2019-02-03T19:17:45.173Z,102092.66
2019-02-03T19:20:25.496Z,102100.90
2019-02-03T19:22:53.734Z,102100.90
2019-02-03T19:25:21.979Z,102106.16
2019-02-03T19:27:50.290Z,102101.84
2019-02-03T19:30:20.282Z,102101.22
2019-02-03T19:32:51.693Z,102096.41
2019-02-03T19:35:27.955Z,102103.53
2019-02-03T19:37:56.220Z,102105.49
2019-02-03T19:40:26.629Z,102103.84
2019-02-03T19:42:54.878Z,102102.15
2019-02-03T19:45:25.569Z,102106.65
2019-02-03T19:47:53.944Z,102112.52
2019-02-03T19:50:31.336Z,102115.63
2019-02-03T19:52:59.604Z,102113.15
2019-02-03T19:55:28.018Z,102121.07
2019-02-03T19:57:56.336Z,102119.67
2019-02-03T20:00:30.232Z,102116.83
2019-02-03T20:02:58.609Z,102122.44
2019-02-03T20:05:26.908Z,102121.85
2019-02-03T20:07:55.185Z,102126.30
2019-02-03T20:10:28.088Z,102134.21
2019-02-03T20:12:56.366Z,102131.45
2019-02-03T20:15:24.623Z,102134.52
2019-02-03T20:17:52.993Z,102139.58
2019-02-03T20:20:33.111Z,102147.19
2019-02-03T20:23:01.408Z,102148.11
2019-02-03T20:25:30.020Z,102139.20
2019-02-03T20:27:58.346Z,102137.77
2019-02-03T20:30:37.931Z,102134.30
2019-02-03T20:32:57.849Z,102137.69
2019-02-03T20:35:28.717Z,102136.25
2019-02-03T20:37:57.182Z,102137.18
2019-02-03T20:40:42.855Z,102138.42
2019-02-03T20:43:12.105Z,102143.06
2019-02-03T20:45:49.119Z,102140.20
2019-02-03T20:48:10.944Z,102142.56
2019-02-03T20:50:39.629Z,102142.37
2019-02-03T20:53:07.903Z,102142.59
2019-02-03T20:55:36.150Z,102137.98
2019-02-03T20:58:04.536Z,102137.47
2019-02-03T21:00:38.172Z,102134.58
2019-02-03T21:03:06.811Z,102137.77
2019-02-03T21:05:35.327Z,102137.77
2019-02-03T21:08:03.699Z,102141.16
2019-02-03T21:10:32.013Z,102138.39
2019-02-03T21:13:10.874Z,102136.95
2019-02-03T21:15:33.768Z,102141.70
2019-02-03T21:18:00.484Z,102142.63
2019-02-03T21:20:31.337Z,102146.24
2019-02-03T21:22:59.678Z,102149.83
2019-02-03T21:25:28.004Z,102143.55
2019-02-03T21:27:57.119Z,102142.65
2019-02-03T21:30:30.857Z,102142.23
2019-02-03T21:32:59.657Z,102155.19
2019-02-03T21:35:27.923Z,102155.78
2019-02-03T21:37:56.171Z,102153.86
2019-02-03T21:40:27.053Z,102165.97
2019-02-03T21:42:55.399Z,102162.98
2019-02-03T21:45:23.686Z,102164.53
2019-02-03T21:47:52.314Z,102161.77
2019-02-03T21:50:25.674Z,102167.59
2019-02-03T21:52:53.982Z,102172.42
2019-02-03T21:55:22.298Z,102165.34
2019-02-03T21:57:50.535Z,102165.87
2019-02-03T22:00:26.998Z,102167.41
2019-02-03T22:02:55.333Z,102165.45
2019-02-03T22:05:23.760Z,102169.34
2019-02-03T22:07:51.999Z,102169.03
2019-02-03T22:10:28.476Z,102167.20
2019-02-03T22:12:56.715Z,102167.70
2019-02-03T22:15:24.985Z,102165.66
2019-02-03T22:17:53.301Z,102164.02
2019-02-03T22:20:23.082Z,102167.48
2019-02-03T22:22:51.337Z,102155.00
2019-02-03T22:25:19.684Z,102152.83
2019-02-03T22:27:48.345Z,102151.21
2019-02-03T22:30:28.372Z,102151.21
2019-02-03T22:32:56.968Z,102152.02
2019-02-03T22:35:25.212Z,102156.83
2019-02-03T22:37:53.599Z,102152.55
2019-02-03T22:40:22.290Z,102158.89
2019-02-03T22:42:50.541Z,102164.44
2019-02-03T22:45:24.216Z,102171.09
2019-02-03T22:47:52.922Z,102167.09
2019-02-03T22:50:23.813Z,102155.59
2019-02-03T22:52:52.090Z,102153.45
2019-02-03T22:55:20.547Z,102159.10
2019-02-03T22:57:48.855Z,102155.00
2019-02-03T23:00:45.559Z,102151.70
2019-02-03T23:03:14.358Z,102157.03
2019-02-03T23:05:42.613Z,102156.13
2019-02-03T23:08:10.884Z,102163.38
2019-02-03T23:10:39.145Z,102155.59
2019-02-03T23:13:07.418Z,102162.47
2019-02-03T23:15:37.426Z,102154.16
2019-02-03T23:18:06.053Z,102150.90
2019-02-03T23:20:34.681Z,102143.40
2019-02-03T23:23:02.946Z,102152.72
2019-02-03T23:25:31.292Z,102147.81
2019-02-03T23:27:59.538Z,102152.62
2019-02-03T23:30:27.838Z,102148.34
2019-02-03T23:32:56.523Z,102144.73
2019-02-03T23:35:24.819Z,102147.70
2019-02-03T23:37:53.090Z,102146.27
2019-02-03T23:40:21.344Z,102146.80
2019-02-03T23:42:49.683Z,102146.69
2019-02-03T23:45:18.052Z,102150.16
2019-02-03T23:47:46.333Z,102148.55
2019-02-03T23:50:21.457Z,102151.91
2019-02-03T23:52:49.909Z,102145.77
2019-02-03T23:55:18.161Z,102152.11
2019-02-03T23:57:46.421Z,102153.23
